GHARV ESUT-EN08

Flight info

Callsign GHARV
Flight time N/A
Altitude 4500
Route ENHT
Aircraft BE36/L-ICAO/YES

Departure

Time 2026-04-22 18:03
Airport Hemavan Airport (ESUT)

Arrival

Time N/A
Airport EN08
Time Latitude Longitude Altitude Speed Heading
2026-04-22 17:57 65.81171 15.08152 1508 ft 0 kts 302°
2026-04-22 18:01 65.81181 15.07945 1507 ft 15 kts 278°
2026-04-22 18:01 65.81158 15.07783 1507 ft 0 kts 242°
2026-04-22 18:01 65.81149 15.07731 1507 ft 13 kts 245°
2026-04-22 18:02 65.81112 15.07649 1507 ft 5 kts 155°
2026-04-22 18:02 65.81092 15.07672 1507 ft 0 kts 154°
2026-04-22 18:02 65.81084 15.07679 1507 ft 0 kts 155°
2026-04-22 18:02 65.81084 15.07680 1507 ft 0 kts 155°
2026-04-22 18:03 65.81072 15.07693 1507 ft 18 kts 155°
2026-04-22 18:03 65.80728 15.08124 1507 ft 83 kts 152°
2026-04-22 18:03 65.80179 15.08777 1778 ft 84 kts 156°
2026-04-22 18:03 65.79642 15.09243 2146 ft 88 kts 161°
2026-04-22 18:04 65.79077 15.09715 2518 ft 91 kts 159°
2026-04-22 18:04 65.78472 15.10315 2825 ft 102 kts 157°
2026-04-22 18:04 65.77766 15.11071 2978 ft 120 kts 155°
2026-04-22 18:04 65.77003 15.12028 3150 ft 129 kts 150°
2026-04-22 18:05 65.76198 15.13189 3202 ft 143 kts 144°
2026-04-22 18:05 65.75399 15.14777 3254 ft 150 kts 137°
2026-04-22 18:05 65.74765 15.16993 2965 ft 173 kts 113°
2026-04-22 18:05 65.74631 15.19918 2814 ft 177 kts 88°
2026-04-22 18:06 65.74689 15.22963 2609 ft 183 kts 86°
2026-04-22 18:06 65.74777 15.26017 2490 ft 181 kts 86°
2026-04-22 18:06 65.74867 15.29082 2373 ft 181 kts 85°
2026-04-22 18:06 65.74931 15.32132 2287 ft 179 kts 87°
2026-04-22 18:07 65.75010 15.34086 2313 ft 174 kts 73°
2026-04-22 18:07 65.76222 15.35247 2856 ft 150 kts 358°
2026-04-22 18:07 65.77268 15.35241 3061 ft 151 kts
2026-04-22 18:07 65.78310 15.35259 3309 ft 150 kts
2026-04-22 18:08 65.79356 15.35328 3524 ft 151 kts 358°
2026-04-22 18:08 65.80399 15.35250 3704 ft 153 kts 358°
2026-04-22 18:08 65.81459 15.35136 3939 ft 151 kts 355°
2026-04-22 18:08 65.82517 15.35097 4091 ft 155 kts
2026-04-22 18:09 65.83623 15.35143 4120 ft 164 kts 359°
2026-04-22 18:09 65.84763 15.35058 4186 ft 167 kts 356°
2026-04-22 18:09 65.85864 15.34267 4304 ft 165 kts 332°
2026-04-22 18:09 65.86719 15.32531 4461 ft 163 kts 309°
2026-04-22 18:10 65.87273 15.30074 4562 ft 163 kts 291°
2026-04-22 18:10 65.87645 15.27273 4145 ft 190 kts 286°
2026-04-22 18:10 65.88016 15.24094 3902 ft 194 kts 287°
2026-04-22 18:10 65.88417 15.21020 3863 ft 187 kts 288°
2026-04-22 18:11 65.88680 15.17944 3802 ft 185 kts 273°
2026-04-22 18:11 65.88466 15.14799 3571 ft 192 kts 248°
2026-04-22 18:11 65.87705 15.12116 3370 ft 193 kts 226°
2026-04-22 18:11 65.86679 15.10197 3406 ft 184 kts 208°
2026-04-22 18:12 65.85500 15.08863 3181 ft 191 kts 207°
2026-04-22 18:12 65.84309 15.07455 3063 ft 190 kts 202°
2026-04-22 18:12 65.83511 15.06724 2835 ft 182 kts 200°
2026-04-22 18:12 65.82004 15.06304 2170 ft 137 kts 156°
2026-04-22 18:13 65.81327 15.07391 1688 ft 108 kts 151°
2026-04-22 18:13 65.80736 15.08129 1507 ft 89 kts 152°
2026-04-22 18:13 65.80113 15.08897 1572 ft 102 kts 154°
2026-04-22 18:13 65.79471 15.09275 1762 ft 105 kts 197°
2026-04-22 18:14 65.79072 15.07883 2089 ft 111 kts 270°
2026-04-22 18:14 65.79232 15.05959 2377 ft 123 kts 296°
2026-04-22 18:14 65.79835 15.04230 2396 ft 148 kts 317°
2026-04-22 18:14 65.80616 15.02949 2949 ft 128 kts 339°
2026-04-22 18:15 65.81485 15.02125 2987 ft 150 kts 331°
2026-04-22 18:15 65.81942 14.99812 2812 ft 172 kts 272°
2026-04-22 18:15 65.81947 14.96883 2807 ft 171 kts 274°
2026-04-22 18:15 65.82140 14.93880 2391 ft 189 kts 281°
2026-04-22 18:16 65.82381 14.90702 2138 ft 190 kts 281°
2026-04-22 18:16 65.82625 14.87623 2122 ft 181 kts 281°
2026-04-22 18:16 65.82942 14.84697 2143 ft 173 kts 287°
2026-04-22 18:16 65.83273 14.81997 2312 ft 164 kts 287°
2026-04-22 18:17 65.83544 14.79354 2401 ft 162 kts 282°
2026-04-22 18:17 65.83791 14.76714 2545 ft 156 kts 283°
2026-04-22 18:17 65.84002 14.74186 2795 ft 148 kts 279°
2026-04-22 18:17 65.83892 14.71860 3066 ft 141 kts 242°
2026-04-22 18:18 65.83191 14.70000 2967 ft 158 kts 213°
2026-04-22 18:18 65.82227 14.68615 2949 ft 163 kts 215°
2026-04-22 18:18 65.81265 14.67191 3056 ft 159 kts 213°
2026-04-22 18:18 65.80360 14.65638 3052 ft 164 kts 216°
2026-04-22 18:19 65.79628 14.63739 3333 ft 149 kts 249°
2026-04-22 18:19 65.79449 14.61225 3371 ft 155 kts 271°
2026-04-22 18:19 65.79547 14.58563 3400 ft 159 kts 278°
2026-04-22 18:19 65.79677 14.55872 3430 ft 161 kts 277°
2026-04-22 18:20 65.79778 14.53155 3484 ft 161 kts 275°
2026-04-22 18:20 65.79879 14.50439 3560 ft 160 kts 276°
2026-04-22 18:20 65.80005 14.47739 3599 ft 162 kts 277°
2026-04-22 18:20 65.80151 14.45036 3664 ft 161 kts 278°
2026-04-22 18:21 65.80060 14.42341 3733 ft 160 kts 247°
2026-04-22 18:21 65.79318 14.40473 3870 ft 156 kts 206°
2026-04-22 18:21 65.78249 14.39951 3880 ft 160 kts 194°
2026-04-22 18:21 65.77174 14.39360 3951 ft 159 kts 178°
2026-04-22 18:22 65.76073 14.39891 3889 ft 167 kts 164°
2026-04-22 18:22 65.74987 14.40597 3708 ft 158 kts 171°
2026-04-22 18:22 65.73916 14.40743 3557 ft 149 kts 177°
2026-04-22 18:22 65.72927 14.40982 3532 ft 141 kts 171°
2026-04-22 18:23 65.71948 14.41480 3423 ft 147 kts 167°
2026-04-22 18:23 65.70935 14.41873 3353 ft 149 kts 177°
2026-04-22 18:23 65.69901 14.41649 3036 ft 165 kts 207°
2026-04-22 18:24 65.69312 14.36919 3074 ft 140 kts 273°
2026-04-22 18:24 65.69352 14.34606 2844 ft 133 kts 271°
2026-04-22 18:24 65.69108 14.30700 2616 ft 112 kts 245°
2026-04-22 18:25 65.68735 14.29087 2453 ft 109 kts 231°
2026-04-22 18:25 65.68100 14.28146 2205 ft 112 kts 194°
2026-04-22 18:25 65.67621 14.26875 1951 ft 116 kts 263°
2026-04-22 18:26 65.67467 14.23416 1944 ft 100 kts 283°
2026-04-22 18:26 65.67663 14.21778 2004 ft 102 kts 284°
2026-04-22 18:26 65.67808 14.20072 2024 ft 107 kts 274°
2026-04-22 18:26 65.67714 14.18248 2060 ft 108 kts 255°
2026-04-22 18:27 65.67419 14.16624 2131 ft 107 kts 238°
2026-04-22 18:27 65.66966 14.15162 2178 ft 108 kts 225°
2026-04-22 18:27 65.66432 14.13888 2225 ft 108 kts 224°
2026-04-22 18:27 65.65871 14.12631 2254 ft 111 kts 222°
2026-04-22 18:28 65.65508 14.11016 2282 ft 112 kts 261°
2026-04-22 18:28 65.65382 14.09226 2387 ft 106 kts 254°
2026-04-22 18:28 65.64966 14.07734 2407 ft 109 kts 225°
2026-04-22 18:28 65.64418 14.06523 2501 ft 106 kts 219°
2026-04-22 18:29 65.63831 14.05412 2515 ft 109 kts 217°
2026-04-22 18:29 65.63274 14.04160 2559 ft 110 kts 221°
2026-04-22 18:29 65.62556 14.03434 2554 ft 113 kts 191°
2026-04-22 18:29 65.61809 14.03165 2631 ft 111 kts 180°
2026-04-22 18:30 65.61047 14.03382 2338 ft 114 kts 171°
2026-04-22 18:30 65.59653 14.03179 1549 ft 95 kts 215°
2026-04-22 18:30 65.59354 14.01896 1182 ft 90 kts 270°
2026-04-22 18:31 65.59425 14.00480 900 ft 82 kts 276°
2026-04-22 18:31 65.59450 13.99210 743 ft 69 kts 272°
2026-04-22 18:31 65.59467 13.97792 801 ft 88 kts 269°
2026-04-22 18:31 65.59360 13.96368 976 ft 100 kts 243°
2026-04-22 18:32 65.58913 13.94904 1101 ft 120 kts 237°
2026-04-22 18:32 65.58483 13.93255 1522 ft 110 kts 239°
2026-04-22 18:32 65.58052 13.91603 1742 ft 119 kts 237°
2026-04-22 18:32 65.57611 13.89990 2082 ft 117 kts 234°
2026-04-22 18:33 65.57131 13.88302 2296 ft 124 kts 236°
2026-04-22 18:33 65.56648 13.86582 2567 ft 124 kts 236°
2026-04-22 18:33 65.56170 13.84891 2843 ft 124 kts 232°
2026-04-22 18:33 65.55526 13.83440 3062 ft 127 kts 221°
2026-04-22 18:34 65.54983 13.81758 3205 ft 136 kts 238°
2026-04-22 18:34 65.54471 13.79752 3252 ft 146 kts 239°
2026-04-22 18:34 65.53961 13.77489 3290 ft 154 kts 244°
2026-04-22 18:34 65.53560 13.75055 3150 ft 171 kts 253°
2026-04-22 18:35 65.52874 13.72755 3164 ft 166 kts 212°
2026-04-22 18:35 65.51730 13.71868 2750 ft 189 kts 189°
2026-04-22 18:35 65.50382 13.71368 2215 ft 202 kts 189°
2026-04-22 18:35 65.49017 13.70810 1946 ft 198 kts 191°
2026-04-22 18:36 65.47690 13.70159 1827 ft 190 kts 192°
2026-04-22 18:36 65.46442 13.69444 1830 ft 181 kts 196°
2026-04-22 18:36 65.45254 13.68543 1850 ft 175 kts 198°
2026-04-22 18:36 65.44134 13.67630 1960 ft 168 kts 200°
2026-04-22 18:37 65.43056 13.66691 2093 ft 163 kts 199°
2026-04-22 18:37 65.41988 13.65861 2258 ft 158 kts 198°
2026-04-22 18:37 65.41300 13.65335 2396 ft 155 kts 198°
2026-04-22 18:37 65.39957 13.64189 2542 ft 158 kts 201°
2026-04-22 18:38 65.38908 13.63100 2455 ft 169 kts 208°
2026-04-22 18:38 65.37840 13.61786 2339 ft 175 kts 207°
2026-04-22 18:38 65.36732 13.60501 2211 ft 180 kts 205°
2026-04-22 18:39 65.34499 13.57926 2155 ft 177 kts 207°
2026-04-22 18:39 65.33392 13.56618 2129 ft 179 kts 206°
2026-04-22 18:39 65.32297 13.55405 2296 ft 171 kts 205°
2026-04-22 18:39 65.31191 13.54210 2289 ft 176 kts 204°
2026-04-22 18:40 65.30082 13.52975 2298 ft 176 kts 208°
2026-04-22 18:40 65.29004 13.51633 2365 ft 174 kts 205°
2026-04-22 18:40 65.27878 13.50599 2387 ft 176 kts 200°
2026-04-22 18:40 65.26717 13.49612 2428 ft 175 kts 200°
2026-04-22 18:41 65.25575 13.48701 2472 ft 175 kts 198°
2026-04-22 18:41 65.24420 13.47776 2499 ft 175 kts 198°
2026-04-22 18:41 65.23257 13.46848 2533 ft 175 kts 202°
2026-04-22 18:41 65.22136 13.45752 2557 ft 176 kts 202°
2026-04-22 18:42 65.20974 13.44875 2591 ft 176 kts 195°
2026-04-22 18:42 65.19796 13.44174 2623 ft 175 kts 195°
2026-04-22 18:42 65.18663 13.43137 2601 ft 178 kts 205°
2026-04-22 18:42 65.17467 13.42283 2599 ft 178 kts 194°
2026-04-22 18:43 65.16280 13.41701 2592 ft 179 kts 197°
2026-04-22 18:43 65.15031 13.40689 2267 ft 192 kts 201°
2026-04-22 18:43 65.13805 13.39643 2286 ft 185 kts 200°
2026-04-22 18:43 65.12582 13.38631 2111 ft 190 kts 200°
2026-04-22 18:44 65.11392 13.37312 1976 ft 190 kts 209°
2026-04-22 18:44 65.10254 13.35763 1936 ft 187 kts 209°
2026-04-22 18:44 65.09105 13.34368 1915 ft 184 kts 208°
2026-04-22 18:44 65.08044 13.32716 1820 ft 186 kts 214°
2026-04-22 18:45 65.06907 13.31628 1925 ft 177 kts 191°
2026-04-22 18:45 65.05714 13.31147 1971 ft 177 kts 194°
2026-04-22 18:45 65.04571 13.30062 1921 ft 180 kts 207°
2026-04-22 18:45 65.03522 13.28477 1941 ft 179 kts 214°
2026-04-22 18:46 65.02464 13.26972 1951 ft 179 kts 206°
2026-04-22 18:46 65.01301 13.25709 1696 ft 191 kts 198°
2026-04-22 18:46 65.00043 13.24772 1559 ft 190 kts 204°
2026-04-22 18:46 64.98861 13.23449 1578 ft 184 kts 204°
2026-04-22 18:47 64.97719 13.22369 1729 ft 175 kts 201°
2026-04-22 18:47 64.96587 13.21261 1728 ft 178 kts 204°
2026-04-22 18:47 64.95531 13.19775 1840 ft 171 kts 215°
2026-04-22 18:47 64.94572 13.18421 2156 ft 160 kts 207°
2026-04-22 18:48 64.93566 13.17094 2082 ft 173 kts 218°
2026-04-22 18:48 64.93134 13.14405 1877 ft 182 kts 272°
2026-04-22 18:48 64.92931 13.11848 2455 ft 154 kts 245°
2026-04-22 18:48 64.92222 13.09798 2304 ft 173 kts 217°
2026-04-22 18:49 64.91182 13.08545 2577 ft 162 kts 199°
2026-04-22 18:49 64.90088 13.07785 2601 ft 170 kts 195°
2026-04-22 18:49 64.88938 13.07088 2686 ft 169 kts 198°
2026-04-22 18:49 64.87846 13.06258 2823 ft 167 kts 198°
2026-04-22 18:50 64.86762 13.05151 2851 ft 171 kts 210°
2026-04-22 18:50 64.85817 13.03383 2864 ft 173 kts 216°
2026-04-22 18:50 64.84861 13.01669 2855 ft 177 kts 219°
2026-04-22 18:50 64.83897 12.99791 2768 ft 181 kts 218°
2026-04-22 18:51 64.82967 12.97912 2844 ft 176 kts 221°
2026-04-22 18:51 64.82038 12.96057 2847 ft 177 kts 220°
2026-04-22 18:51 64.81072 12.94198 2821 ft 179 kts 219°
2026-04-22 18:51 64.80102 12.92405 2854 ft 177 kts 216°
2026-04-22 18:52 64.79077 12.90779 2856 ft 178 kts 212°
2026-04-22 18:52 64.77982 12.89389 2676 ft 187 kts 207°
2026-04-22 18:52 64.76860 12.87858 2531 ft 190 kts 212°
2026-04-22 18:52 64.75713 12.86042 1936 ft 205 kts 216°
2026-04-22 18:53 64.74649 12.84102 1561 ft 188 kts 219°
2026-04-22 18:53 64.73717 12.82313 1646 ft 161 kts 219°
2026-04-22 18:53 64.72864 12.80776 1785 ft 152 kts 216°
2026-04-22 18:53 64.71993 12.79349 1774 ft 153 kts 217°
2026-04-22 18:54 64.71159 12.77811 1805 ft 153 kts 219°
2026-04-22 18:54 64.70333 12.76247 1822 ft 153 kts 220°
2026-04-22 18:54 64.69542 12.74610 1823 ft 154 kts 223°
2026-04-22 18:54 64.68710 12.72993 1823 ft 154 kts 218°
2026-04-22 18:55 64.67879 12.71462 1854 ft 153 kts 220°
2026-04-22 18:55 64.67081 12.69849 1936 ft 149 kts 224°
2026-04-22 18:55 64.66404 12.68077 1991 ft 149 kts 233°
2026-04-22 18:55 64.65836 12.66038 1994 ft 151 kts 238°
2026-04-22 18:56 64.65242 12.64045 2077 ft 148 kts 232°
2026-04-22 18:56 64.64484 12.62392 2060 ft 152 kts 216°
2026-04-22 18:56 64.63590 12.61101 2065 ft 153 kts 214°
2026-04-22 18:56 64.62711 12.59532 1873 ft 165 kts 220°
2026-04-22 18:57 64.61839 12.57747 1676 ft 170 kts 223°
2026-04-22 18:57 64.60924 12.55979 1512 ft 171 kts 214°
2026-04-22 18:57 64.60026 12.54255 1381 ft 170 kts 225°
2026-04-22 18:57 64.59012 12.52887 1294 ft 168 kts 203°
2026-04-22 18:58 64.57919 12.51957 1159 ft 169 kts 199°
2026-04-22 18:58 64.56847 12.51031 1218 ft 160 kts 205°
2026-04-22 18:58 64.56041 12.49359 1209 ft 158 kts 236°
2026-04-22 18:58 64.55331 12.47507 1297 ft 152 kts 221°
2026-04-22 18:59 64.54479 12.46123 1387 ft 149 kts 213°
2026-04-22 18:59 64.53610 12.44740 1377 ft 152 kts 218°
2026-04-22 18:59 64.52777 12.43300 1531 ft 144 kts 210°
2026-04-22 18:59 64.51968 12.42014 1609 ft 145 kts 232°
2026-04-22 19:00 64.51515 12.39988 1745 ft 141 kts 247°
2026-04-22 19:00 64.51085 12.37843 1664 ft 152 kts 243°
2026-04-22 19:00 64.50356 12.36103 1595 ft 158 kts 206°
2026-04-22 19:00 64.49386 12.34853 1483 ft 162 kts 213°
2026-04-22 19:01 64.48422 12.33461 1382 ft 164 kts 209°
2026-04-22 19:01 64.47514 12.31944 1444 ft 157 kts 219°
2026-04-22 19:01 64.46575 12.30837 1540 ft 150 kts 183°
2026-04-22 19:01 64.45567 12.31505 1442 ft 158 kts 153°
2026-04-22 19:02 64.44740 12.33071 1584 ft 148 kts 130°
2026-04-22 19:02 64.43906 12.34377 1461 ft 160 kts 172°
2026-04-22 19:02 64.42786 12.34244 1392 ft 160 kts 184°
2026-04-22 19:02 64.41583 12.33966 883 ft 180 kts 185°
2026-04-22 19:03 64.40395 12.34495 872 ft 169 kts 155°
2026-04-22 19:03 64.39415 12.35846 854 ft 160 kts 147°
2026-04-22 19:03 64.38662 12.36938 987 ft 111 kts 150°
2026-04-22 19:03 64.38061 12.36666 1110 ft 97 kts 255°
2026-04-22 19:04 64.38374 12.35319 985 ft 101 kts 318°
2026-04-22 19:04 64.38948 12.34649 628 ft 92 kts 336°
2026-04-22 19:04 64.39454 12.34122 425 ft 52 kts 330°
2026-04-22 19:04 64.39605 12.33999 424 ft 12 kts 333°
2026-04-22 19:05 64.39665 12.33881 425 ft 8 kts 297°
2026-04-22 19:05 64.39692 12.33800 427 ft 8 kts 332°
2026-04-22 19:05 64.39710 12.33801 426 ft 0 kts 86°